sensor_id;sensor_type;location;lat;lon;timestamp;temperature;humidity
12981;DHT22;6555;50.468;8.480;2023-03-12T00:03:17;2.50;53.20
12981;DHT22;6555;50.468;8.480;2023-03-12T00:08:34;2.50;53.20
12981;DHT22;6555;50.468;8.480;2023-03-12T00:14:04;2.50;53.40
12981;DHT22;6555;50.468;8.480;2023-03-12T00:19:21;2.40;53.30
12981;DHT22;6555;50.468;8.480;2023-03-12T00:24:53;2.50;53.60
12981;DHT22;6555;50.468;8.480;2023-03-12T00:30:17;2.50;53.60
12981;DHT22;6555;50.468;8.480;2023-03-12T00:35:50;2.50;53.60
12981;DHT22;6555;50.468;8.480;2023-03-12T00:41:07;2.50;53.60
12981;DHT22;6555;50.468;8.480;2023-03-12T00:46:37;2.50;53.60
12981;DHT22;6555;50.468;8.480;2023-03-12T00:51:54;2.50;53.60
12981;DHT22;6555;50.468;8.480;2023-03-12T00:57:25;2.50;53.60
12981;DHT22;6555;50.468;8.480;2023-03-12T01:02:41;2.50;53.70
12981;DHT22;6555;50.468;8.480;2023-03-12T01:08:12;2.50;53.70
12981;DHT22;6555;50.468;8.480;2023-03-12T01:13:30;2.50;53.70
12981;DHT22;6555;50.468;8.480;2023-03-12T01:19:01;2.50;53.70
12981;DHT22;6555;50.468;8.480;2023-03-12T01:24:18;2.50;53.70
12981;DHT22;6555;50.468;8.480;2023-03-12T01:29:49;2.50;53.80
12981;DHT22;6555;50.468;8.480;2023-03-12T01:35:06;2.50;53.90
12981;DHT22;6555;50.468;8.480;2023-03-12T01:40:38;2.50;53.90
12981;DHT22;6555;50.468;8.480;2023-03-12T01:46:06;2.50;53.70
12981;DHT22;6555;50.468;8.480;2023-03-12T01:51:40;2.50;53.70
12981;DHT22;6555;50.468;8.480;2023-03-12T01:57:05;2.50;53.90
12981;DHT22;6555;50.468;8.480;2023-03-12T02:02:37;2.50;54.00
12981;DHT22;6555;50.468;8.480;2023-03-12T02:08:00;2.40;53.90
12981;DHT22;6555;50.468;8.480;2023-03-12T02:13:31;2.50;54.00
12981;DHT22;6555;50.468;8.480;2023-03-12T02:18:50;2.50;54.10
12981;DHT22;6555;50.468;8.480;2023-03-12T02:24:25;2.50;54.00
12981;DHT22;6555;50.468;8.480;2023-03-12T02:29:45;2.50;54.00
12981;DHT22;6555;50.468;8.480;2023-03-12T02:35:16;2.50;53.90
12981;DHT22;6555;50.468;8.480;2023-03-12T02:40:35;2.50;54.00
12981;DHT22;6555;50.468;8.480;2023-03-12T02:46:10;2.50;54.10
12981;DHT22;6555;50.468;8.480;2023-03-12T02:51:27;2.50;54.10
12981;DHT22;6555;50.468;8.480;2023-03-12T02:56:57;2.60;54.10
12981;DHT22;6555;50.468;8.480;2023-03-12T03:02:14;2.60;54.20
12981;DHT22;6555;50.468;8.480;2023-03-12T03:07:45;2.60;54.10
12981;DHT22;6555;50.468;8.480;2023-03-12T03:13:01;2.60;54.10
12981;DHT22;6555;50.468;8.480;2023-03-12T03:18:33;2.60;54.10
12981;DHT22;6555;50.468;8.480;2023-03-12T03:24:04;2.60;54.20
12981;DHT22;6555;50.468;8.480;2023-03-12T03:29:21;2.60;54.10
12981;DHT22;6555;50.468;8.480;2023-03-12T03:34:52;2.70;54.20
12981;DHT22;6555;50.468;8.480;2023-03-12T03:40:10;2.70;54.20
12981;DHT22;6555;50.468;8.480;2023-03-12T03:45:41;2.70;54.10
12981;DHT22;6555;50.468;8.480;2023-03-12T03:51:01;2.60;54.10
12981;DHT22;6555;50.468;8.480;2023-03-12T03:56:36;2.60;54.10
12981;DHT22;6555;50.468;8.480;2023-03-12T04:01:52;2.60;54.30
12981;DHT22;6555;50.468;8.480;2023-03-12T04:07:25;2.60;54.30
12981;DHT22;6555;50.468;8.480;2023-03-12T04:12:42;2.70;54.50
12981;DHT22;6555;50.468;8.480;2023-03-12T04:18:14;2.70;55.10
12981;DHT22;6555;50.468;8.480;2023-03-12T04:23:32;2.70;54.50
12981;DHT22;6555;50.468;8.480;2023-03-12T04:29:06;2.70;54.50
12981;DHT22;6555;50.468;8.480;2023-03-12T04:34:22;2.80;54.50
12981;DHT22;6555;50.468;8.480;2023-03-12T04:39:55;2.80;54.50
12981;DHT22;6555;50.468;8.480;2023-03-12T04:45:12;2.80;54.50
12981;DHT22;6555;50.468;8.480;2023-03-12T04:50:43;2.90;54.50
12981;DHT22;6555;50.468;8.480;2023-03-12T04:56:01;2.90;54.40
12981;DHT22;6555;50.468;8.480;2023-03-12T05:01:32;2.80;54.30
12981;DHT22;6555;50.468;8.480;2023-03-12T05:06:54;2.80;54.40
12981;DHT22;6555;50.468;8.480;2023-03-12T05:12:26;2.80;54.30
12981;DHT22;6555;50.468;8.480;2023-03-12T05:17:43;2.70;54.50
12981;DHT22;6555;50.468;8.480;2023-03-12T05:23:13;2.80;54.50
12981;DHT22;6555;50.468;8.480;2023-03-12T05:28:31;2.70;55.30
12981;DHT22;6555;50.468;8.480;2023-03-12T05:34:03;2.70;54.60
12981;DHT22;6555;50.468;8.480;2023-03-12T05:39:20;2.70;54.80
12981;DHT22;6555;50.468;8.480;2023-03-12T05:44:51;2.80;54.80
12981;DHT22;6555;50.468;8.480;2023-03-12T05:50:10;2.80;55.00
12981;DHT22;6555;50.468;8.480;2023-03-12T05:55:41;2.80;54.80
12981;DHT22;6555;50.468;8.480;2023-03-12T06:00:58;2.90;54.80
12981;DHT22;6555;50.468;8.480;2023-03-12T06:06:29;2.90;54.70
12981;DHT22;6555;50.468;8.480;2023-03-12T06:11:46;2.90;54.90
12981;DHT22;6555;50.468;8.480;2023-03-12T06:17:18;2.90;55.00
12981;DHT22;6555;50.468;8.480;2023-03-12T06:22:35;2.90;55.20
12981;DHT22;6555;50.468;8.480;2023-03-12T06:28:06;3.00;55.10
12981;DHT22;6555;50.468;8.480;2023-03-12T06:33:30;3.00;55.20
12981;DHT22;6555;50.468;8.480;2023-03-12T06:39:01;3.10;55.30
12981;DHT22;6555;50.468;8.480;2023-03-12T06:44:21;3.10;55.30
12981;DHT22;6555;50.468;8.480;2023-03-12T06:49:52;3.20;55.20
12981;DHT22;6555;50.468;8.480;2023-03-12T06:55:09;3.30;55.50
12981;DHT22;6555;50.468;8.480;2023-03-12T07:00:39;3.30;55.30
12981;DHT22;6555;50.468;8.480;2023-03-12T07:05:57;3.30;55.40
12981;DHT22;6555;50.468;8.480;2023-03-12T07:11:27;3.40;55.30
12981;DHT22;6555;50.468;8.480;2023-03-12T07:16:43;3.40;55.30
12981;DHT22;6555;50.468;8.480;2023-03-12T07:22:14;3.40;55.30
12981;DHT22;6555;50.468;8.480;2023-03-12T07:27:31;3.40;55.40
12981;DHT22;6555;50.468;8.480;2023-03-12T07:33:02;3.40;55.40
12981;DHT22;6555;50.468;8.480;2023-03-12T07:38:26;3.50;55.70
12981;DHT22;6555;50.468;8.480;2023-03-12T07:43:57;3.60;55.70
12981;DHT22;6555;50.468;8.480;2023-03-12T07:49:13;3.60;55.70
12981;DHT22;6555;50.468;8.480;2023-03-12T07:54:44;3.70;55.80
12981;DHT22;6555;50.468;8.480;2023-03-12T08:00:01;3.70;55.90
12981;DHT22;6555;50.468;8.480;2023-03-12T08:05:31;3.80;55.80
12981;DHT22;6555;50.468;8.480;2023-03-12T08:10:48;3.90;56.00
12981;DHT22;6555;50.468;8.480;2023-03-12T08:16:19;3.90;55.70
12981;DHT22;6555;50.468;8.480;2023-03-12T08:21:35;3.90;55.80
12981;DHT22;6555;50.468;8.480;2023-03-12T08:27:06;3.90;55.70
12981;DHT22;6555;50.468;8.480;2023-03-12T08:32:23;3.90;55.90
12981;DHT22;6555;50.468;8.480;2023-03-12T08:37:54;4.00;55.80
12981;DHT22;6555;50.468;8.480;2023-03-12T08:43:12;4.00;55.90
12981;DHT22;6555;50.468;8.480;2023-03-12T08:48:43;4.00;56.00
12981;DHT22;6555;50.468;8.480;2023-03-12T08:53:59;4.10;56.20
12981;DHT22;6555;50.468;8.480;2023-03-12T08:59:31;4.20;56.00
12981;DHT22;6555;50.468;8.480;2023-03-12T09:04:49;4.20;56.10
12981;DHT22;6555;50.468;8.480;2023-03-12T09:10:19;4.30;56.10
12981;DHT22;6555;50.468;8.480;2023-03-12T09:15:39;4.30;56.30
